createdAt,value
2023-03-31T00:00:11.987Z,10.03
2023-03-31T00:02:41.870Z,14.03
2023-03-31T00:05:10.242Z,8.53
2023-03-31T00:07:39.976Z,11.60
2023-03-31T00:10:17.327Z,13.20
2023-03-31T00:12:45.932Z,9.23
2023-03-31T00:15:13.027Z,11.87
2023-03-31T00:17:40.006Z,13.27
2023-03-31T00:20:12.216Z,10.60
2023-03-31T00:22:42.490Z,13.67
2023-03-31T00:25:13.046Z,9.27
2023-03-31T00:27:44.225Z,9.90
2023-03-31T00:30:12.831Z,11.87
2023-03-31T00:32:40.322Z,9.57
2023-03-31T00:35:08.752Z,10.23
2023-03-31T00:37:36.108Z,11.93
2023-03-31T00:40:09.750Z,13.80
2023-03-31T00:42:43.902Z,10.80
2023-03-31T00:45:16.893Z,11.20
2023-03-31T00:48:11.512Z,10.57
2023-03-31T00:50:48.945Z,11.90
2023-03-31T00:53:18.462Z,10.10
2023-03-31T00:55:53.098Z,10.77
2023-03-31T00:58:23.016Z,11.00
2023-03-31T01:00:52.949Z,9.03
2023-03-31T01:03:22.750Z,9.17
2023-03-31T01:05:51.824Z,10.50
2023-03-31T01:08:24.509Z,10.87
2023-03-31T01:11:01.806Z,10.80
2023-03-31T01:13:29.846Z,12.70
2023-03-31T01:15:56.617Z,11.83
2023-03-31T01:18:24.426Z,9.93
2023-03-31T01:21:30.816Z,10.67
2023-03-31T01:24:16.277Z,11.83
2023-03-31T01:26:58.061Z,8.93
2023-03-31T01:29:40.440Z,15.43
2023-03-31T01:32:39.982Z,16.13
2023-03-31T01:35:43.319Z,13.17
2023-03-31T01:38:18.934Z,12.57
2023-03-31T01:40:51.801Z,17.80
2023-03-31T01:43:44.836Z,13.57
2023-03-31T01:47:02.292Z,15.63
2023-03-31T01:49:35.299Z,14.70
2023-03-31T01:52:12.689Z,14.30
2023-03-31T01:54:53.604Z,15.80
2023-03-31T01:57:33.235Z,15.60
2023-03-31T02:00:11.882Z,16.00
2023-03-31T02:02:43.195Z,13.67
2023-03-31T02:05:13.490Z,11.73
2023-03-31T02:07:48.069Z,12.67
2023-03-31T02:10:16.598Z,11.47
2023-03-31T02:12:45.589Z,11.07
2023-03-31T02:15:18.306Z,12.10
2023-03-31T02:17:48.917Z,10.00
2023-03-31T02:20:19.677Z,9.87
2023-03-31T02:22:55.327Z,8.80
2023-03-31T02:25:32.387Z,12.33
2023-03-31T02:28:12.614Z,7.43
2023-03-31T02:30:48.984Z,10.53
2023-03-31T02:33:16.714Z,7.80
2023-03-31T02:35:43.522Z,11.00
2023-03-31T02:38:11.809Z,6.60
2023-03-31T02:40:38.559Z,12.70
2023-03-31T02:43:05.771Z,7.30
2023-03-31T02:45:51.810Z,7.67
2023-03-31T02:48:32.580Z,7.23
2023-03-31T02:51:25.563Z,6.30
2023-03-31T02:54:19.830Z,7.30
2023-03-31T02:57:18.684Z,5.50
2023-03-31T03:00:02.607Z,5.97
2023-03-31T03:02:59.808Z,6.63
2023-03-31T03:05:49.815Z,5.17
2023-03-31T03:08:31.582Z,6.87
2023-03-31T03:11:11.715Z,8.27
2023-03-31T03:13:56.322Z,7.97
2023-03-31T03:16:35.603Z,6.10
2023-03-31T03:19:05.472Z,5.43
2023-03-31T03:21:32.895Z,7.93
2023-03-31T03:24:00.174Z,5.97
2023-03-31T03:26:29.919Z,8.50
2023-03-31T03:28:57.248Z,4.57
2023-03-31T03:31:26.076Z,6.53
2023-03-31T03:33:53.635Z,5.00
2023-03-31T03:36:20.503Z,8.37
2023-03-31T03:38:47.296Z,8.37
2023-03-31T03:41:14.039Z,7.03
2023-03-31T03:43:40.963Z,7.80
2023-03-31T03:46:08.023Z,7.20
2023-03-31T03:48:35.219Z,10.77
2023-03-31T03:51:02.411Z,9.53
2023-03-31T03:53:29.356Z,8.10
2023-03-31T03:55:56.498Z,7.67
2023-03-31T03:58:23.266Z,5.93
2023-03-31T04:00:50.292Z,7.37
2023-03-31T04:03:17.066Z,11.07
2023-03-31T04:05:43.909Z,8.03
2023-03-31T04:08:10.779Z,6.50
2023-03-31T04:10:38.414Z,11.37
2023-03-31T04:13:05.315Z,10.17
2023-03-31T04:15:32.027Z,8.90
2023-03-31T04:17:58.785Z,8.97
2023-03-31T04:20:31.539Z,15.27
2023-03-31T04:22:58.271Z,8.67
2023-03-31T04:25:24.976Z,10.93
2023-03-31T04:27:55.186Z,11.57
2023-03-31T04:30:30.599Z,10.13
2023-03-31T04:33:02.599Z,7.93
2023-03-31T04:35:42.900Z,11.63
2023-03-31T04:38:09.942Z,11.03
2023-03-31T04:40:36.649Z,13.83
2023-03-31T04:43:03.407Z,10.03
2023-03-31T04:45:30.179Z,6.80
2023-03-31T04:47:56.979Z,10.97
2023-03-31T04:50:23.769Z,10.40
2023-03-31T04:52:50.710Z,11.73
2023-03-31T04:55:17.448Z,10.83
2023-03-31T04:57:44.149Z,11.30
2023-03-31T05:00:11.600Z,11.37
2023-03-31T05:02:38.400Z,8.63
2023-03-31T05:05:06.051Z,13.70
2023-03-31T05:07:32.987Z,11.07
2023-03-31T05:09:59.750Z,11.20
2023-03-31T05:12:26.529Z,14.57
2023-03-31T05:14:53.278Z,15.23
2023-03-31T05:17:20.420Z,14.53
2023-03-31T05:19:47.169Z,15.13
2023-03-31T05:22:13.928Z,15.20
2023-03-31T05:24:40.614Z,17.00
2023-03-31T05:27:07.413Z,15.13
2023-03-31T05:29:34.169Z,17.63
2023-03-31T05:32:01.700Z,13.33
2023-03-31T05:34:28.623Z,9.63
2023-03-31T05:36:55.412Z,15.17
2023-03-31T05:39:22.197Z,15.27
2023-03-31T05:41:48.933Z,14.50
2023-03-31T05:44:16.047Z,15.70
2023-03-31T05:46:42.911Z,12.97
2023-03-31T05:49:11.384Z,12.17
2023-03-31T05:51:38.156Z,16.37
2023-03-31T05:54:06.244Z,10.67
2023-03-31T05:56:33.026Z,11.77
2023-03-31T05:59:01.432Z,16.50
2023-03-31T06:01:30.159Z,13.93
2023-03-31T06:03:57.326Z,15.47
2023-03-31T06:06:25.416Z,17.60
2023-03-31T06:08:52.323Z,14.03
2023-03-31T06:11:21.420Z,14.90
2023-03-31T06:13:49.095Z,18.93
2023-03-31T06:16:17.468Z,13.33
2023-03-31T06:18:44.703Z,14.40
2023-03-31T06:21:16.902Z,23.53
2023-03-31T06:23:44.545Z,14.37
2023-03-31T06:26:13.213Z,12.27
2023-03-31T06:28:40.011Z,13.57
2023-03-31T06:31:09.904Z,13.47
2023-03-31T06:33:36.796Z,13.93
2023-03-31T06:36:05.682Z,17.67
2023-03-31T06:38:34.445Z,9.83
2023-03-31T06:41:01.217Z,11.93
2023-03-31T06:43:28.051Z,15.77
2023-03-31T06:45:55.608Z,13.47
2023-03-31T06:48:25.986Z,12.83
2023-03-31T06:50:56.868Z,11.53
2023-03-31T06:53:23.635Z,11.30
2023-03-31T06:55:50.802Z,11.93
2023-03-31T06:58:17.643Z,12.27
2023-03-31T07:00:46.141Z,9.27
2023-03-31T07:03:14.602Z,9.17
2023-03-31T07:05:41.701Z,9.53
2023-03-31T07:08:08.388Z,11.70
2023-03-31T07:10:35.225Z,11.23
2023-03-31T07:13:03.698Z,10.50
2023-03-31T07:15:31.836Z,8.37
2023-03-31T07:18:02.636Z,10.20
2023-03-31T07:20:30.671Z,9.60
2023-03-31T07:22:57.640Z,10.27
2023-03-31T07:25:24.541Z,7.40
2023-03-31T07:27:51.431Z,8.40
2023-03-31T07:30:20.253Z,9.60
2023-03-31T07:32:49.498Z,10.43
2023-03-31T07:35:17.057Z,7.60
2023-03-31T07:37:45.891Z,10.53
2023-03-31T07:40:17.108Z,6.50
2023-03-31T07:42:46.022Z,11.57
2023-03-31T07:45:16.789Z,8.27
2023-03-31T07:47:46.381Z,8.80
2023-03-31T07:50:14.974Z,8.43
2023-03-31T07:52:43.111Z,8.90
2023-03-31T07:55:12.335Z,8.83
2023-03-31T07:57:39.851Z,6.57
2023-03-31T08:00:09.521Z,9.67
2023-03-31T08:02:36.531Z,10.43
2023-03-31T08:05:04.089Z,11.00
2023-03-31T08:07:34.231Z,7.63
2023-03-31T08:10:01.037Z,11.80
2023-03-31T08:12:27.780Z,10.97
2023-03-31T08:14:54.625Z,7.10
2023-03-31T08:17:21.376Z,6.47
2023-03-31T08:19:48.136Z,5.00
2023-03-31T08:22:14.822Z,8.63
2023-03-31T08:24:41.515Z,8.70
2023-03-31T08:27:11.951Z,8.43
2023-03-31T08:29:39.310Z,6.83
2023-03-31T08:32:07.239Z,5.30
2023-03-31T08:34:35.016Z,4.27
2023-03-31T08:37:02.937Z,5.63
2023-03-31T08:39:30.464Z,8.03
2023-03-31T08:42:28.968Z,5.70
2023-03-31T08:45:04.211Z,6.83
2023-03-31T08:47:34.933Z,4.97
2023-03-31T08:50:12.907Z,8.67
2023-03-31T08:52:50.342Z,6.10
2023-03-31T08:55:34.579Z,6.60
2023-03-31T08:58:28.225Z,7.30
2023-03-31T09:01:08.222Z,3.83
2023-03-31T09:03:49.235Z,5.40
2023-03-31T09:06:35.956Z,4.57
2023-03-31T09:09:08.304Z,5.97
2023-03-31T09:12:04.570Z,5.20
2023-03-31T09:14:55.710Z,6.27
2023-03-31T09:17:35.017Z,7.90
2023-03-31T09:20:13.643Z,7.00
2023-03-31T09:22:46.609Z,5.13
2023-03-31T09:25:22.743Z,4.57
2023-03-31T09:27:52.173Z,6.03
2023-03-31T09:30:33.620Z,6.10
2023-03-31T09:33:24.749Z,2.77
2023-03-31T09:35:52.244Z,7.17
2023-03-31T09:38:19.056Z,3.90
2023-03-31T09:40:45.884Z,5.40
2023-03-31T09:43:27.319Z,3.90
2023-03-31T09:46:07.698Z,5.73
2023-03-31T09:48:50.695Z,5.60
2023-03-31T09:51:24.814Z,4.83
2023-03-31T09:54:07.683Z,5.80
2023-03-31T09:56:43.324Z,7.13
2023-03-31T09:59:18.963Z,5.37
2023-03-31T10:01:49.631Z,6.17
2023-03-31T10:04:25.595Z,6.73
2023-03-31T10:06:53.698Z,6.47
2023-03-31T10:09:24.804Z,4.67
2023-03-31T10:12:09.693Z,5.60
2023-03-31T10:14:46.857Z,6.27
2023-03-31T10:17:19.087Z,8.13
2023-03-31T10:19:58.704Z,6.37
2023-03-31T10:22:31.228Z,5.90
2023-03-31T10:25:20.967Z,5.50
2023-03-31T10:27:51.859Z,6.33
2023-03-31T10:30:23.090Z,5.13
2023-03-31T10:32:52.606Z,4.53
2023-03-31T10:35:32.767Z,4.97
2023-03-31T10:38:06.074Z,6.03
2023-03-31T10:40:35.220Z,6.73
2023-03-31T10:43:20.484Z,6.37
2023-03-31T10:45:56.654Z,3.63
2023-03-31T10:48:33.296Z,7.97
2023-03-31T10:51:05.640Z,5.33
2023-03-31T10:53:44.666Z,8.03
2023-03-31T10:56:18.581Z,3.77
2023-03-31T10:59:22.943Z,5.57
2023-03-31T11:02:39.827Z,4.50
2023-03-31T11:05:16.014Z,4.33
2023-03-31T11:08:03.253Z,1.33
2023-03-31T11:10:33.066Z,3.77
2023-03-31T11:13:02.550Z,4.03
2023-03-31T11:15:38.179Z,3.90
2023-03-31T11:18:47.140Z,4.73
2023-03-31T11:21:26.329Z,3.40
2023-03-31T11:24:22.253Z,0.87
2023-03-31T11:27:01.620Z,1.63
2023-03-31T11:29:35.936Z,0.83
2023-03-31T11:32:20.650Z,1.87
2023-03-31T11:35:04.140Z,1.40
2023-03-31T11:38:26.669Z,2.07
2023-03-31T11:41:09.771Z,3.30
2023-03-31T11:43:48.502Z,2.40
2023-03-31T11:46:23.916Z,2.80
2023-03-31T11:48:58.371Z,1.30
2023-03-31T11:51:35.322Z,1.93
2023-03-31T11:54:06.469Z,1.07
2023-03-31T11:56:39.785Z,0.30
2023-03-31T11:59:07.633Z,1.30
2023-03-31T12:01:55.428Z,1.20
2023-03-31T12:04:42.372Z,1.80
2023-03-31T12:07:27.624Z,2.57
2023-03-31T12:10:20.224Z,1.60
2023-03-31T12:12:56.154Z,1.80
2023-03-31T12:15:37.573Z,0.77
2023-03-31T12:18:16.173Z,0.10
2023-03-31T12:20:56.750Z,3.23
2023-03-31T12:23:28.554Z,1.77
2023-03-31T12:26:28.150Z,2.87
2023-03-31T12:29:00.280Z,1.83
2023-03-31T12:31:28.625Z,3.17
2023-03-31T12:34:08.547Z,2.60
2023-03-31T12:36:44.608Z,2.63
2023-03-31T12:39:35.888Z,1.80
2023-03-31T12:42:36.079Z,1.63
2023-03-31T12:45:26.031Z,1.90
2023-03-31T12:48:01.767Z,2.03
2023-03-31T12:50:40.759Z,2.13
2023-03-31T12:53:19.563Z,4.20
2023-03-31T12:55:49.296Z,3.23
2023-03-31T12:58:26.601Z,1.40
2023-03-31T13:01:07.222Z,2.03
2023-03-31T13:03:34.956Z,0.63
2023-03-31T13:06:04.518Z,2.47
2023-03-31T13:08:59.198Z,1.97
2023-03-31T13:11:37.703Z,3.27
2023-03-31T13:14:16.531Z,2.70
2023-03-31T13:16:43.822Z,2.30
2023-03-31T13:19:26.061Z,2.47
2023-03-31T13:22:01.331Z,4.90
2023-03-31T13:24:31.111Z,1.70
2023-03-31T13:27:00.937Z,1.50
2023-03-31T13:29:42.330Z,1.33
2023-03-31T13:32:19.800Z,0.83
2023-03-31T13:35:17.584Z,3.07
2023-03-31T13:37:59.795Z,2.63
2023-03-31T13:40:56.498Z,4.07
2023-03-31T13:43:43.604Z,3.87
2023-03-31T13:46:27.425Z,4.27
2023-03-31T13:49:44.866Z,3.67
2023-03-31T13:52:12.980Z,4.00
2023-03-31T13:55:10.774Z,1.67
2023-03-31T13:57:54.579Z,3.13
2023-03-31T14:00:42.082Z,2.80
2023-03-31T14:03:37.576Z,3.60
2023-03-31T14:06:21.013Z,4.40
2023-03-31T14:08:53.277Z,5.17
2023-03-31T14:11:31.255Z,3.03
2023-03-31T14:14:11.386Z,2.93
2023-03-31T14:16:40.805Z,2.00
2023-03-31T14:19:44.234Z,5.80
2023-03-31T14:22:43.119Z,4.50
2023-03-31T14:25:36.109Z,3.33
2023-03-31T14:28:21.115Z,3.67
2023-03-31T14:31:23.490Z,4.07
2023-03-31T14:34:39.950Z,3.10
2023-03-31T14:37:11.846Z,2.53
2023-03-31T14:39:43.484Z,2.07
2023-03-31T14:42:18.728Z,1.93
2023-03-31T14:44:48.514Z,3.63
2023-03-31T14:47:21.472Z,3.63
2023-03-31T14:49:48.322Z,3.10
2023-03-31T14:52:21.176Z,2.57
2023-03-31T14:54:48.013Z,4.60
2023-03-31T14:57:20.486Z,3.37
2023-03-31T14:59:50.991Z,3.20
2023-03-31T15:02:23.949Z,2.57
2023-03-31T15:04:51.821Z,2.00
2023-03-31T15:07:18.700Z,6.20
2023-03-31T15:09:54.516Z,2.93
2023-03-31T15:12:23.480Z,2.50
2023-03-31T15:14:54.697Z,3.30
2023-03-31T15:17:23.738Z,3.00
2023-03-31T15:20:01.036Z,1.77
2023-03-31T15:22:30.115Z,2.43
2023-03-31T15:24:57.859Z,4.13
2023-03-31T15:27:36.584Z,2.87
2023-03-31T15:30:15.001Z,4.10
2023-03-31T15:32:41.992Z,3.43
2023-03-31T15:35:28.841Z,1.60
2023-03-31T15:37:57.749Z,1.90
2023-03-31T15:40:53.794Z,2.10
2023-03-31T15:43:44.833Z,2.27
2023-03-31T15:46:35.458Z,3.17
2023-03-31T15:49:02.328Z,2.60
2023-03-31T15:51:34.104Z,3.47
2023-03-31T15:54:00.982Z,3.87
2023-03-31T15:56:44.185Z,4.63
2023-03-31T15:59:27.447Z,3.00
2023-03-31T16:02:03.610Z,3.10
2023-03-31T16:04:32.752Z,5.53
2023-03-31T16:07:13.548Z,2.07
2023-03-31T16:10:03.865Z,3.63
2023-03-31T16:12:53.729Z,4.57
2023-03-31T16:15:33.846Z,5.30
2023-03-31T16:18:10.141Z,4.70
2023-03-31T16:21:00.024Z,3.23
2023-03-31T16:23:38.702Z,2.80
2023-03-31T16:26:07.030Z,4.33
2023-03-31T16:28:36.784Z,3.03
2023-03-31T16:31:05.318Z,4.67
2023-03-31T16:33:53.495Z,7.27
2023-03-31T16:36:20.664Z,6.17
2023-03-31T16:38:47.670Z,5.43
2023-03-31T16:41:15.955Z,4.77
2023-03-31T16:43:45.689Z,5.60
2023-03-31T16:46:12.549Z,4.23
2023-03-31T16:48:39.323Z,4.97
2023-03-31T16:51:06.137Z,4.63
2023-03-31T16:53:35.987Z,4.87
2023-03-31T16:56:04.761Z,4.47
2023-03-31T16:58:31.920Z,7.90
2023-03-31T17:00:59.022Z,11.13
2023-03-31T17:03:26.730Z,6.17
2023-03-31T17:05:58.617Z,5.90
2023-03-31T17:08:27.614Z,6.43
2023-03-31T17:11:11.670Z,7.13
2023-03-31T17:13:40.079Z,8.63
2023-03-31T17:16:17.570Z,5.03
2023-03-31T17:18:49.137Z,7.27
2023-03-31T17:21:19.082Z,7.27
2023-03-31T17:23:46.760Z,5.73
2023-03-31T17:26:14.485Z,6.90
2023-03-31T17:28:42.006Z,5.90
2023-03-31T17:31:13.193Z,9.17
2023-03-31T17:33:40.295Z,8.00
2023-03-31T17:36:07.550Z,9.43
2023-03-31T17:38:34.768Z,8.07
2023-03-31T17:41:09.593Z,7.13
2023-03-31T17:43:37.999Z,8.03
2023-03-31T17:46:08.184Z,9.93
2023-03-31T17:48:39.856Z,11.20
2023-03-31T17:51:13.842Z,9.37
2023-03-31T17:53:41.662Z,13.03
2023-03-31T17:56:09.031Z,10.23
2023-03-31T17:58:36.020Z,11.47
2023-03-31T18:01:07.832Z,14.77
2023-03-31T18:03:35.233Z,17.27
2023-03-31T18:06:07.783Z,15.60
2023-03-31T18:08:35.364Z,15.67
2023-03-31T18:11:04.908Z,13.17
2023-03-31T18:13:33.581Z,14.70
2023-03-31T18:16:00.724Z,14.00
2023-03-31T18:18:29.032Z,16.07
2023-03-31T18:20:56.352Z,13.93
2023-03-31T18:23:23.805Z,14.63
2023-03-31T18:25:50.589Z,15.73
2023-03-31T18:28:18.932Z,17.30
2023-03-31T18:30:47.258Z,15.40
2023-03-31T18:33:14.451Z,12.23
2023-03-31T18:35:41.746Z,12.40
2023-03-31T18:38:09.751Z,10.73
2023-03-31T18:40:36.888Z,10.13
2023-03-31T18:43:03.990Z,14.70
2023-03-31T18:45:30.948Z,11.73
2023-03-31T18:47:58.120Z,10.30
2023-03-31T18:50:25.892Z,11.83
2023-03-31T18:52:54.334Z,11.83
2023-03-31T18:55:22.192Z,11.07
2023-03-31T18:57:49.448Z,9.60
2023-03-31T19:00:17.282Z,13.43
2023-03-31T19:02:44.414Z,11.83
2023-03-31T19:05:11.475Z,9.57
2023-03-31T19:07:39.156Z,10.53
2023-03-31T19:10:07.023Z,10.57
2023-03-31T19:12:33.867Z,9.87
2023-03-31T19:15:00.618Z,10.67
2023-03-31T19:17:27.455Z,6.87
2023-03-31T19:19:55.474Z,8.27
2023-03-31T19:22:22.343Z,8.30
2023-03-31T19:24:49.094Z,6.57
2023-03-31T19:27:16.195Z,10.00
2023-03-31T19:29:42.938Z,6.93
2023-03-31T19:32:09.909Z,8.27
2023-03-31T19:34:36.932Z,7.33
2023-03-31T19:37:04.207Z,8.10
2023-03-31T19:39:31.037Z,9.73
2023-03-31T19:41:57.766Z,7.20
2023-03-31T19:44:24.570Z,7.83
2023-03-31T19:46:51.361Z,6.73
2023-03-31T19:49:18.769Z,9.47
2023-03-31T19:51:46.198Z,8.13
2023-03-31T19:54:13.107Z,8.10
2023-03-31T19:56:39.973Z,8.23
2023-03-31T19:59:06.930Z,11.10
2023-03-31T20:01:33.919Z,9.10
2023-03-31T20:04:00.962Z,8.80
2023-03-31T20:06:29.626Z,9.63
2023-03-31T20:08:59.446Z,9.07
2023-03-31T20:11:28.122Z,11.40
2023-03-31T20:13:55.820Z,9.70
2023-03-31T20:16:25.866Z,9.00
2023-03-31T20:18:57.800Z,8.80
2023-03-31T20:21:27.575Z,8.97
2023-03-31T20:23:55.133Z,10.43
2023-03-31T20:26:25.149Z,10.27
2023-03-31T20:28:54.280Z,12.60
2023-03-31T20:31:27.323Z,11.87
2023-03-31T20:33:54.921Z,11.50
2023-03-31T20:36:24.758Z,13.37
2023-03-31T20:38:53.368Z,12.17
2023-03-31T20:41:22.747Z,12.03
2023-03-31T20:43:50.675Z,10.13
2023-03-31T20:46:17.661Z,13.00
2023-03-31T20:48:47.954Z,13.67
2023-03-31T20:51:17.351Z,10.17
2023-03-31T20:53:46.692Z,13.83
2023-03-31T20:56:25.439Z,12.27
2023-03-31T20:58:54.645Z,14.27
2023-03-31T21:01:22.477Z,13.10
2023-03-31T21:03:50.143Z,11.73
2023-03-31T21:06:20.567Z,10.93
2023-03-31T21:08:52.291Z,11.23
2023-03-31T21:11:19.648Z,11.23
2023-03-31T21:13:48.132Z,9.50
2023-03-31T21:16:16.248Z,8.70
2023-03-31T21:18:43.640Z,9.00
2023-03-31T21:21:15.834Z,8.90
2023-03-31T21:23:42.734Z,7.87
2023-03-31T21:26:13.052Z,8.83
2023-03-31T21:28:40.025Z,8.30
2023-03-31T21:31:09.874Z,9.43
2023-03-31T21:33:38.608Z,12.20
2023-03-31T21:36:07.869Z,9.30
2023-03-31T21:38:36.273Z,8.07
2023-03-31T21:41:07.784Z,7.93
2023-03-31T21:43:34.645Z,7.87
2023-03-31T21:46:01.995Z,7.10
2023-03-31T21:48:29.614Z,5.80
2023-03-31T21:51:00.397Z,6.27
2023-03-31T21:53:29.112Z,5.90
2023-03-31T21:55:56.467Z,6.23
2023-03-31T21:58:26.565Z,6.90
2023-03-31T22:00:56.134Z,6.93
2023-03-31T22:03:27.536Z,6.97
2023-03-31T22:05:56.068Z,6.40
2023-03-31T22:08:23.489Z,8.47
2023-03-31T22:10:52.166Z,11.07
2023-03-31T22:13:21.152Z,7.40
2023-03-31T22:15:48.441Z,8.00
2023-03-31T22:18:16.969Z,9.13
2023-03-31T22:20:44.071Z,7.90
2023-03-31T22:23:10.848Z,9.00
2023-03-31T22:25:37.721Z,7.90
2023-03-31T22:28:06.968Z,9.30
2023-03-31T22:30:34.242Z,8.33
2023-03-31T22:33:01.292Z,8.60
2023-03-31T22:35:28.557Z,6.80
2023-03-31T22:37:55.642Z,7.57
2023-03-31T22:40:23.297Z,7.93
2023-03-31T22:42:50.150Z,6.50
2023-03-31T22:45:16.955Z,6.83
2023-03-31T22:47:44.201Z,6.70
2023-03-31T22:50:11.904Z,7.50
2023-03-31T22:52:38.707Z,7.67
2023-03-31T22:55:06.242Z,7.20
2023-03-31T22:57:33.295Z,7.47
2023-03-31T23:00:00.729Z,6.97
2023-03-31T23:02:27.661Z,5.73
2023-03-31T23:04:54.446Z,6.33
2023-03-31T23:07:22.217Z,5.80
2023-03-31T23:09:49.106Z,7.10
2023-03-31T23:12:16.271Z,6.53
2023-03-31T23:14:43.138Z,6.33
2023-03-31T23:17:09.876Z,4.97
2023-03-31T23:19:37.839Z,6.40
2023-03-31T23:22:05.830Z,7.63
2023-03-31T23:24:32.722Z,5.57
2023-03-31T23:26:59.422Z,5.90
2023-03-31T23:29:26.318Z,6.47
2023-03-31T23:31:53.134Z,7.07
2023-03-31T23:34:19.922Z,5.47
2023-03-31T23:36:46.740Z,5.23
2023-03-31T23:39:13.620Z,5.97
2023-03-31T23:41:40.336Z,4.90
2023-03-31T23:44:07.334Z,5.40
2023-03-31T23:46:34.209Z,5.00
2023-03-31T23:49:02.768Z,4.47
2023-03-31T23:51:29.682Z,4.77
2023-03-31T23:53:56.554Z,5.43
2023-03-31T23:56:23.588Z,6.80
2023-03-31T23:58:50.501Z,5.03
